sensor_id;sensor_type;location;lat;lon;timestamp;P1;durP1;ratioP1;P2;durP2;ratioP2
3415;SDS011;1721;51.238;9.562;2022-09-12T00:01:01;5.97;;;3.17;;
3415;SDS011;1721;51.238;9.562;2022-09-12T00:03:30;8.40;;;3.58;;
3415;SDS011;1721;51.238;9.562;2022-09-12T00:05:56;8.77;;;4.00;;
3415;SDS011;1721;51.238;9.562;2022-09-12T00:08:21;8.47;;;3.57;;
3415;SDS011;1721;51.238;9.562;2022-09-12T00:10:47;9.53;;;3.23;;
3415;SDS011;1721;51.238;9.562;2022-09-12T00:13:13;8.27;;;3.63;;
3415;SDS011;1721;51.238;9.562;2022-09-12T00:15:39;8.53;;;3.87;;
3415;SDS011;1721;51.238;9.562;2022-09-12T00:18:12;12.88;;;4.05;;
3415;SDS011;1721;51.238;9.562;2022-09-12T00:20:45;7.82;;;3.40;;
3415;SDS011;1721;51.238;9.562;2022-09-12T00:23:11;7.20;;;3.28;;
3415;SDS011;1721;51.238;9.562;2022-09-12T00:25:44;10.88;;;3.90;;
3415;SDS011;1721;51.238;9.562;2022-09-12T00:28:11;11.35;;;3.90;;
3415;SDS011;1721;51.238;9.562;2022-09-12T00:30:39;9.88;;;3.80;;
3415;SDS011;1721;51.238;9.562;2022-09-12T00:33:08;7.85;;;3.00;;
3415;SDS011;1721;51.238;9.562;2022-09-12T00:35:47;13.30;;;4.13;;
3415;SDS011;1721;51.238;9.562;2022-09-12T00:38:16;6.47;;;3.17;;
3415;SDS011;1721;51.238;9.562;2022-09-12T00:40:42;10.80;;;3.67;;
3415;SDS011;1721;51.238;9.562;2022-09-12T00:48:39;8.63;;;3.10;;
3415;SDS011;1721;51.238;9.562;2022-09-12T00:51:08;11.00;;;4.50;;
3415;SDS011;1721;51.238;9.562;2022-09-12T00:53:34;18.50;;;3.97;;
3415;SDS011;1721;51.238;9.562;2022-09-12T00:56:00;8.43;;;3.97;;
3415;SDS011;1721;51.238;9.562;2022-09-12T00:58:30;8.87;;;4.10;;
3415;SDS011;1721;51.238;9.562;2022-09-12T01:01:01;15.02;;;3.35;;
3415;SDS011;1721;51.238;9.562;2022-09-12T01:03:27;9.13;;;3.50;;
3415;SDS011;1721;51.238;9.562;2022-09-12T01:06:00;6.80;;;3.90;;
3415;SDS011;1721;51.238;9.562;2022-09-12T01:08:37;6.75;;;3.10;;
3415;SDS011;1721;51.238;9.562;2022-09-12T01:11:05;8.52;;;3.67;;
3415;SDS011;1721;51.238;9.562;2022-09-12T01:13:35;14.68;;;3.80;;
3415;SDS011;1721;51.238;9.562;2022-09-12T01:16:04;11.43;;;4.20;;
3415;SDS011;1721;51.238;9.562;2022-09-12T01:18:36;13.50;;;4.10;;
3415;SDS011;1721;51.238;9.562;2022-09-12T01:21:23;9.18;;;3.75;;
3415;SDS011;1721;51.238;9.562;2022-09-12T01:30:03;10.30;;;3.75;;
3415;SDS011;1721;51.238;9.562;2022-09-12T01:35:37;10.80;;;3.90;;
3415;SDS011;1721;51.238;9.562;2022-09-12T01:38:13;10.32;;;3.45;;
3415;SDS011;1721;51.238;9.562;2022-09-12T01:41:00;31.42;;;3.45;;
3415;SDS011;1721;51.238;9.562;2022-09-12T01:43:34;8.35;;;3.03;;
3415;SDS011;1721;51.238;9.562;2022-09-12T01:48:54;13.15;;;3.80;;
3415;SDS011;1721;51.238;9.562;2022-09-12T01:51:34;8.68;;;3.80;;
3415;SDS011;1721;51.238;9.562;2022-09-12T01:54:15;8.80;;;3.83;;
3415;SDS011;1721;51.238;9.562;2022-09-12T01:56:48;9.27;;;3.33;;
3415;SDS011;1721;51.238;9.562;2022-09-12T01:59:17;11.50;;;3.88;;
3415;SDS011;1721;51.238;9.562;2022-09-12T02:01:52;10.15;;;4.30;;
3415;SDS011;1721;51.238;9.562;2022-09-12T02:04:24;11.00;;;3.53;;
3415;SDS011;1721;51.238;9.562;2022-09-12T02:06:56;7.50;;;3.38;;
3415;SDS011;1721;51.238;9.562;2022-09-12T02:09:27;9.27;;;4.47;;
3415;SDS011;1721;51.238;9.562;2022-09-12T02:11:59;8.73;;;3.72;;
3415;SDS011;1721;51.238;9.562;2022-09-12T02:14:28;9.20;;;3.70;;
3415;SDS011;1721;51.238;9.562;2022-09-12T02:16:58;10.93;;;3.83;;
3415;SDS011;1721;51.238;9.562;2022-09-12T02:19:31;11.02;;;3.92;;
3415;SDS011;1721;51.238;9.562;2022-09-12T02:22:01;18.92;;;5.55;;
3415;SDS011;1721;51.238;9.562;2022-09-12T02:24:37;10.98;;;4.10;;
3415;SDS011;1721;51.238;9.562;2022-09-12T02:27:10;8.68;;;4.10;;
3415;SDS011;1721;51.238;9.562;2022-09-12T02:29:40;16.42;;;4.63;;
3415;SDS011;1721;51.238;9.562;2022-09-12T02:32:13;9.90;;;3.60;;
3415;SDS011;1721;51.238;9.562;2022-09-12T02:34:50;11.00;;;5.00;;
3415;SDS011;1721;51.238;9.562;2022-09-12T02:40:24;12.95;;;4.78;;
3415;SDS011;1721;51.238;9.562;2022-09-12T02:42:50;13.40;;;4.57;;
3415;SDS011;1721;51.238;9.562;2022-09-12T02:45:16;9.20;;;4.57;;
3415;SDS011;1721;51.238;9.562;2022-09-12T02:50:13;15.30;;;4.55;;
3415;SDS011;1721;51.238;9.562;2022-09-12T02:52:39;10.50;;;4.47;;
3415;SDS011;1721;51.238;9.562;2022-09-12T02:55:06;12.75;;;4.20;;
3415;SDS011;1721;51.238;9.562;2022-09-12T02:57:32;7.93;;;3.65;;
3415;SDS011;1721;51.238;9.562;2022-09-12T02:59:58;9.17;;;3.80;;
3415;SDS011;1721;51.238;9.562;2022-09-12T03:07:38;10.40;;;4.05;;
3415;SDS011;1721;51.238;9.562;2022-09-12T03:10:39;10.85;;;3.50;;
3415;SDS011;1721;51.238;9.562;2022-09-12T03:18:57;10.77;;;3.90;;
3415;SDS011;1721;51.238;9.562;2022-09-12T03:21:34;9.90;;;4.10;;
3415;SDS011;1721;51.238;9.562;2022-09-12T03:26:59;13.82;;;4.60;;
3415;SDS011;1721;51.238;9.562;2022-09-12T03:29:33;10.23;;;4.30;;
3415;SDS011;1721;51.238;9.562;2022-09-12T03:32:02;10.55;;;4.00;;
3415;SDS011;1721;51.238;9.562;2022-09-12T03:34:27;12.50;;;3.93;;
3415;SDS011;1721;51.238;9.562;2022-09-12T03:36:53;11.33;;;3.90;;
3415;SDS011;1721;51.238;9.562;2022-09-12T03:39:19;17.25;;;4.40;;
3415;SDS011;1721;51.238;9.562;2022-09-12T03:41:48;15.90;;;6.35;;
3415;SDS011;1721;51.238;9.562;2022-09-12T03:44:14;13.77;;;5.60;;
3415;SDS011;1721;51.238;9.562;2022-09-12T03:46:40;13.73;;;5.13;;
3415;SDS011;1721;51.238;9.562;2022-09-12T03:49:05;7.23;;;4.03;;
3415;SDS011;1721;51.238;9.562;2022-09-12T03:51:31;10.17;;;3.93;;
3415;SDS011;1721;51.238;9.562;2022-09-12T03:53:56;10.23;;;4.80;;
3415;SDS011;1721;51.238;9.562;2022-09-12T03:56:22;14.40;;;3.90;;
3415;SDS011;1721;51.238;9.562;2022-09-12T03:58:48;8.70;;;3.53;;
3415;SDS011;1721;51.238;9.562;2022-09-12T04:01:14;25.13;;;4.50;;
3415;SDS011;1721;51.238;9.562;2022-09-12T04:03:45;10.60;;;4.28;;
3415;SDS011;1721;51.238;9.562;2022-09-12T04:06:13;10.80;;;3.35;;
3415;SDS011;1721;51.238;9.562;2022-09-12T04:08:41;8.60;;;3.53;;
3415;SDS011;1721;51.238;9.562;2022-09-12T04:11:11;9.23;;;3.42;;
3415;SDS011;1721;51.238;9.562;2022-09-12T04:13:38;11.60;;;3.80;;
3415;SDS011;1721;51.238;9.562;2022-09-12T04:16:06;14.02;;;3.97;;
3415;SDS011;1721;51.238;9.562;2022-09-12T04:18:33;10.82;;;4.00;;
3415;SDS011;1721;51.238;9.562;2022-09-12T04:21:02;15.70;;;4.20;;
3415;SDS011;1721;51.238;9.562;2022-09-12T04:23:29;12.10;;;4.80;;
3415;SDS011;1721;51.238;9.562;2022-09-12T04:25:55;10.75;;;4.80;;
3415;SDS011;1721;51.238;9.562;2022-09-12T04:28:22;10.75;;;4.60;;
3415;SDS011;1721;51.238;9.562;2022-09-12T04:30:49;13.30;;;5.05;;
3415;SDS011;1721;51.238;9.562;2022-09-12T04:33:15;10.30;;;4.38;;
3415;SDS011;1721;51.238;9.562;2022-09-12T04:35:40;10.87;;;5.17;;
3415;SDS011;1721;51.238;9.562;2022-09-12T04:38:06;10.90;;;4.80;;
3415;SDS011;1721;51.238;9.562;2022-09-12T04:40:33;10.88;;;4.95;;
3415;SDS011;1721;51.238;9.562;2022-09-12T04:42:58;12.80;;;5.13;;
3415;SDS011;1721;51.238;9.562;2022-09-12T04:45:24;12.53;;;5.40;;
3415;SDS011;1721;51.238;9.562;2022-09-12T04:47:50;11.57;;;4.90;;
3415;SDS011;1721;51.238;9.562;2022-09-12T04:50:16;12.23;;;5.57;;
3415;SDS011;1721;51.238;9.562;2022-09-12T04:52:42;11.93;;;4.43;;
3415;SDS011;1721;51.238;9.562;2022-09-12T04:55:13;13.27;;;5.43;;
3415;SDS011;1721;51.238;9.562;2022-09-12T04:57:38;11.40;;;4.88;;
3415;SDS011;1721;51.238;9.562;2022-09-12T05:00:04;10.95;;;5.05;;
3415;SDS011;1721;51.238;9.562;2022-09-12T05:02:32;11.40;;;4.88;;
3415;SDS011;1721;51.238;9.562;2022-09-12T05:04:58;11.00;;;4.60;;
3415;SDS011;1721;51.238;9.562;2022-09-12T05:07:23;11.27;;;4.30;;
3415;SDS011;1721;51.238;9.562;2022-09-12T05:09:49;9.75;;;4.15;;
3415;SDS011;1721;51.238;9.562;2022-09-12T05:12:14;11.32;;;4.90;;
3415;SDS011;1721;51.238;9.562;2022-09-12T05:14:40;11.10;;;4.20;;
3415;SDS011;1721;51.238;9.562;2022-09-12T05:17:05;10.20;;;4.45;;
3415;SDS011;1721;51.238;9.562;2022-09-12T05:19:31;17.53;;;5.33;;
3415;SDS011;1721;51.238;9.562;2022-09-12T05:21:57;11.03;;;4.50;;
3415;SDS011;1721;51.238;9.562;2022-09-12T05:24:23;15.40;;;5.40;;
3415;SDS011;1721;51.238;9.562;2022-09-12T05:26:49;14.23;;;5.85;;
3415;SDS011;1721;51.238;9.562;2022-09-12T05:29:14;11.47;;;4.93;;
3415;SDS011;1721;51.238;9.562;2022-09-12T05:31:40;12.57;;;5.23;;
3415;SDS011;1721;51.238;9.562;2022-09-12T05:34:06;13.75;;;5.20;;
3415;SDS011;1721;51.238;9.562;2022-09-12T05:36:33;11.13;;;5.20;;
3415;SDS011;1721;51.238;9.562;2022-09-12T05:38:58;9.70;;;4.47;;
3415;SDS011;1721;51.238;9.562;2022-09-12T05:41:26;11.50;;;5.20;;
3415;SDS011;1721;51.238;9.562;2022-09-12T05:43:59;14.70;;;5.20;;
3415;SDS011;1721;51.238;9.562;2022-09-12T05:46:27;11.90;;;5.32;;
3415;SDS011;1721;51.238;9.562;2022-09-12T05:48:54;22.88;;;6.20;;
3415;SDS011;1721;51.238;9.562;2022-09-12T05:51:22;14.68;;;5.50;;
3415;SDS011;1721;51.238;9.562;2022-09-12T05:53:54;21.90;;;6.20;;
3415;SDS011;1721;51.238;9.562;2022-09-12T05:56:22;17.20;;;7.47;;
3415;SDS011;1721;51.238;9.562;2022-09-12T05:58:57;16.48;;;7.60;;
3415;SDS011;1721;51.238;9.562;2022-09-12T06:01:25;16.08;;;7.90;;
3415;SDS011;1721;51.238;9.562;2022-09-12T06:03:51;19.20;;;8.95;;
3415;SDS011;1721;51.238;9.562;2022-09-12T06:06:19;16.63;;;8.45;;
3415;SDS011;1721;51.238;9.562;2022-09-12T06:08:47;21.50;;;9.30;;
3415;SDS011;1721;51.238;9.562;2022-09-12T06:11:19;17.10;;;8.73;;
3415;SDS011;1721;51.238;9.562;2022-09-12T06:13:47;18.00;;;8.65;;
3415;SDS011;1721;51.238;9.562;2022-09-12T06:16:17;17.75;;;7.93;;
3415;SDS011;1721;51.238;9.562;2022-09-12T06:18:48;16.42;;;7.45;;
3415;SDS011;1721;51.238;9.562;2022-09-12T06:21:15;11.02;;;5.30;;
3415;SDS011;1721;51.238;9.562;2022-09-12T06:23:41;16.80;;;5.90;;
3415;SDS011;1721;51.238;9.562;2022-09-12T06:26:08;11.68;;;5.15;;
3415;SDS011;1721;51.238;9.562;2022-09-12T06:28:35;11.73;;;5.15;;
3415;SDS011;1721;51.238;9.562;2022-09-12T06:33:30;12.38;;;4.70;;
3415;SDS011;1721;51.238;9.562;2022-09-12T06:36:11;9.73;;;4.50;;
3415;SDS011;1721;51.238;9.562;2022-09-12T06:38:38;10.60;;;4.40;;
3415;SDS011;1721;51.238;9.562;2022-09-12T06:41:05;9.60;;;4.63;;
3415;SDS011;1721;51.238;9.562;2022-09-12T06:43:32;12.18;;;4.80;;
3415;SDS011;1721;51.238;9.562;2022-09-12T06:45:58;9.10;;;4.10;;
3415;SDS011;1721;51.238;9.562;2022-09-12T06:48:25;9.80;;;4.90;;
3415;SDS011;1721;51.238;9.562;2022-09-12T06:50:55;10.95;;;5.15;;
3415;SDS011;1721;51.238;9.562;2022-09-12T06:53:29;11.93;;;4.60;;
3415;SDS011;1721;51.238;9.562;2022-09-12T06:56:00;12.10;;;4.68;;
3415;SDS011;1721;51.238;9.562;2022-09-12T06:58:31;9.02;;;4.43;;
3415;SDS011;1721;51.238;9.562;2022-09-12T07:01:00;8.00;;;4.20;;
3415;SDS011;1721;51.238;9.562;2022-09-12T07:03:28;11.30;;;4.20;;
3415;SDS011;1721;51.238;9.562;2022-09-12T07:05:54;13.10;;;3.90;;
3415;SDS011;1721;51.238;9.562;2022-09-12T07:08:20;11.80;;;3.50;;
3415;SDS011;1721;51.238;9.562;2022-09-12T07:10:46;13.70;;;3.20;;
3415;SDS011;1721;51.238;9.562;2022-09-12T07:13:12;10.57;;;3.00;;
3415;SDS011;1721;51.238;9.562;2022-09-12T07:15:38;16.00;;;3.70;;
3415;SDS011;1721;51.238;9.562;2022-09-12T07:18:04;32.75;;;4.30;;
3415;SDS011;1721;51.238;9.562;2022-09-12T07:20:30;18.97;;;4.53;;
3415;SDS011;1721;51.238;9.562;2022-09-12T07:22:57;15.50;;;3.90;;
3415;SDS011;1721;51.238;9.562;2022-09-12T07:25:23;8.43;;;3.70;;
3415;SDS011;1721;51.238;9.562;2022-09-12T07:27:48;10.03;;;3.70;;
3415;SDS011;1721;51.238;9.562;2022-09-12T07:30:16;8.23;;;3.92;;
3415;SDS011;1721;51.238;9.562;2022-09-12T07:32:42;11.07;;;4.40;;
3415;SDS011;1721;51.238;9.562;2022-09-12T07:35:08;8.90;;;4.20;;
3415;SDS011;1721;51.238;9.562;2022-09-12T07:37:34;8.77;;;3.83;;
3415;SDS011;1721;51.238;9.562;2022-09-12T07:39:59;7.13;;;3.67;;
3415;SDS011;1721;51.238;9.562;2022-09-12T07:42:25;8.67;;;4.30;;
3415;SDS011;1721;51.238;9.562;2022-09-12T07:44:50;8.30;;;3.90;;
3415;SDS011;1721;51.238;9.562;2022-09-12T07:47:17;10.65;;;4.28;;
3415;SDS011;1721;51.238;9.562;2022-09-12T07:49:43;8.27;;;4.40;;
3415;SDS011;1721;51.238;9.562;2022-09-12T07:52:08;9.32;;;4.45;;
3415;SDS011;1721;51.238;9.562;2022-09-12T07:54:34;10.60;;;5.03;;
3415;SDS011;1721;51.238;9.562;2022-09-12T07:57:00;10.05;;;4.70;;
3415;SDS011;1721;51.238;9.562;2022-09-12T07:59:26;13.57;;;5.00;;
3415;SDS011;1721;51.238;9.562;2022-09-12T08:01:52;12.90;;;5.25;;
3415;SDS011;1721;51.238;9.562;2022-09-12T08:04:18;10.32;;;5.40;;
3415;SDS011;1721;51.238;9.562;2022-09-12T08:06:43;12.43;;;5.60;;
3415;SDS011;1721;51.238;9.562;2022-09-12T08:09:09;11.53;;;5.80;;
3415;SDS011;1721;51.238;9.562;2022-09-12T08:11:37;10.20;;;5.25;;
3415;SDS011;1721;51.238;9.562;2022-09-12T08:14:03;12.93;;;6.10;;
3415;SDS011;1721;51.238;9.562;2022-09-12T08:16:30;13.68;;;6.28;;
3415;SDS011;1721;51.238;9.562;2022-09-12T08:18:56;13.32;;;6.00;;
3415;SDS011;1721;51.238;9.562;2022-09-12T08:21:24;9.20;;;5.13;;
3415;SDS011;1721;51.238;9.562;2022-09-12T08:23:53;9.77;;;5.50;;
3415;SDS011;1721;51.238;9.562;2022-09-12T08:26:20;12.68;;;6.15;;
3415;SDS011;1721;51.238;9.562;2022-09-12T08:28:46;11.75;;;5.95;;
3415;SDS011;1721;51.238;9.562;2022-09-12T08:31:13;12.60;;;5.90;;
3415;SDS011;1721;51.238;9.562;2022-09-12T08:33:40;12.90;;;6.30;;
3415;SDS011;1721;51.238;9.562;2022-09-12T08:36:07;14.02;;;6.40;;
3415;SDS011;1721;51.238;9.562;2022-09-12T08:38:33;12.10;;;6.03;;
3415;SDS011;1721;51.238;9.562;2022-09-12T08:41:03;13.00;;;6.00;;
3415;SDS011;1721;51.238;9.562;2022-09-12T08:43:48;10.95;;;5.80;;
3415;SDS011;1721;51.238;9.562;2022-09-12T08:49:31;10.98;;;5.50;;
3415;SDS011;1721;51.238;9.562;2022-09-12T08:52:03;12.30;;;5.95;;
3415;SDS011;1721;51.238;9.562;2022-09-12T08:54:33;10.32;;;5.28;;
3415;SDS011;1721;51.238;9.562;2022-09-12T08:57:03;10.70;;;5.23;;
3415;SDS011;1721;51.238;9.562;2022-09-12T08:59:34;11.52;;;5.72;;
3415;SDS011;1721;51.238;9.562;2022-09-12T09:02:02;16.45;;;5.90;;
3415;SDS011;1721;51.238;9.562;2022-09-12T09:16:20;13.63;;;6.45;;
3415;SDS011;1721;51.238;9.562;2022-09-12T09:19:00;11.82;;;6.10;;
3415;SDS011;1721;51.238;9.562;2022-09-12T09:21:40;12.82;;;6.00;;
3415;SDS011;1721;51.238;9.562;2022-09-12T09:24:20;11.70;;;5.20;;
3415;SDS011;1721;51.238;9.562;2022-09-12T09:27:01;13.90;;;6.20;;
3415;SDS011;1721;51.238;9.562;2022-09-12T09:29:35;11.10;;;5.28;;
3415;SDS011;1721;51.238;9.562;2022-09-12T09:32:16;11.77;;;5.38;;
3415;SDS011;1721;51.238;9.562;2022-09-12T09:34:55;10.18;;;4.85;;
3415;SDS011;1721;51.238;9.562;2022-09-12T09:37:33;11.03;;;4.83;;
3415;SDS011;1721;51.238;9.562;2022-09-12T09:42:59;8.90;;;4.10;;
3415;SDS011;1721;51.238;9.562;2022-09-12T09:45:37;11.23;;;4.60;;
3415;SDS011;1721;51.238;9.562;2022-09-12T09:50:45;10.53;;;4.70;;
3415;SDS011;1721;51.238;9.562;2022-09-12T09:53:27;10.20;;;4.80;;
3415;SDS011;1721;51.238;9.562;2022-09-12T09:56:10;12.87;;;5.33;;
3415;SDS011;1721;51.238;9.562;2022-09-12T09:58:50;14.70;;;5.97;;
3415;SDS011;1721;51.238;9.562;2022-09-12T10:01:17;13.60;;;6.30;;
3415;SDS011;1721;51.238;9.562;2022-09-12T10:03:53;21.13;;;6.20;;
3415;SDS011;1721;51.238;9.562;2022-09-12T10:09:09;12.30;;;5.83;;
3415;SDS011;1721;51.238;9.562;2022-09-12T10:11:43;12.10;;;5.23;;
3415;SDS011;1721;51.238;9.562;2022-09-12T10:14:26;10.73;;;4.30;;
3415;SDS011;1721;51.238;9.562;2022-09-12T10:16:54;10.60;;;5.70;;
3415;SDS011;1721;51.238;9.562;2022-09-12T10:19:23;10.10;;;4.70;;
3415;SDS011;1721;51.238;9.562;2022-09-12T10:21:59;11.57;;;5.27;;
3415;SDS011;1721;51.238;9.562;2022-09-12T10:24:27;13.90;;;5.37;;
3415;SDS011;1721;51.238;9.562;2022-09-12T10:29:33;14.60;;;4.70;;
3415;SDS011;1721;51.238;9.562;2022-09-12T10:32:08;9.00;;;4.40;;
3415;SDS011;1721;51.238;9.562;2022-09-12T10:34:42;9.13;;;4.70;;
3415;SDS011;1721;51.238;9.562;2022-09-12T10:40:05;10.80;;;4.03;;
3415;SDS011;1721;51.238;9.562;2022-09-12T10:45:17;8.70;;;3.80;;
3415;SDS011;1721;51.238;9.562;2022-09-12T10:47:44;8.43;;;3.40;;
3415;SDS011;1721;51.238;9.562;2022-09-12T10:50:21;7.77;;;3.53;;
3415;SDS011;1721;51.238;9.562;2022-09-12T10:52:52;8.70;;;3.77;;
3415;SDS011;1721;51.238;9.562;2022-09-12T10:55:20;7.33;;;3.40;;
3415;SDS011;1721;51.238;9.562;2022-09-12T11:00:24;9.77;;;3.00;;
3415;SDS011;1721;51.238;9.562;2022-09-12T11:02:56;19.23;;;2.97;;
3415;SDS011;1721;51.238;9.562;2022-09-12T11:05:54;7.10;;;3.33;;
3415;SDS011;1721;51.238;9.562;2022-09-12T11:08:31;6.93;;;3.17;;
3415;SDS011;1721;51.238;9.562;2022-09-12T11:11:12;7.73;;;3.03;;
3415;SDS011;1721;51.238;9.562;2022-09-12T11:16:52;6.93;;;2.47;;
3415;SDS011;1721;51.238;9.562;2022-09-12T11:25:06;8.00;;;2.77;;
3415;SDS011;1721;51.238;9.562;2022-09-12T11:27:42;6.83;;;2.53;;
3415;SDS011;1721;51.238;9.562;2022-09-12T11:30:19;7.97;;;2.93;;
3415;SDS011;1721;51.238;9.562;2022-09-12T11:35:59;5.90;;;2.83;;
3415;SDS011;1721;51.238;9.562;2022-09-12T11:38:41;8.47;;;3.60;;
3415;SDS011;1721;51.238;9.562;2022-09-12T11:41:25;7.90;;;3.30;;
3415;SDS011;1721;51.238;9.562;2022-09-12T11:46:36;6.20;;;2.80;;
3415;SDS011;1721;51.238;9.562;2022-09-12T11:51:55;9.67;;;2.90;;
3415;SDS011;1721;51.238;9.562;2022-09-12T11:54:28;10.20;;;2.63;;
3415;SDS011;1721;51.238;9.562;2022-09-12T11:57:11;9.03;;;3.37;;
3415;SDS011;1721;51.238;9.562;2022-09-12T12:02:34;7.77;;;3.07;;
3415;SDS011;1721;51.238;9.562;2022-09-12T12:07:44;10.73;;;3.40;;
3415;SDS011;1721;51.238;9.562;2022-09-12T12:10:20;8.37;;;3.20;;
3415;SDS011;1721;51.238;9.562;2022-09-12T12:12:49;12.40;;;3.13;;
3415;SDS011;1721;51.238;9.562;2022-09-12T12:15:16;8.00;;;3.67;;
3415;SDS011;1721;51.238;9.562;2022-09-12T12:17:43;6.90;;;3.10;;
3415;SDS011;1721;51.238;9.562;2022-09-12T12:20:14;8.53;;;3.63;;
3415;SDS011;1721;51.238;9.562;2022-09-12T12:22:51;7.80;;;3.47;;
3415;SDS011;1721;51.238;9.562;2022-09-12T12:32:57;8.63;;;4.10;;
3415;SDS011;1721;51.238;9.562;2022-09-12T12:35:36;14.73;;;4.13;;
3415;SDS011;1721;51.238;9.562;2022-09-12T12:40:52;7.10;;;3.20;;
3415;SDS011;1721;51.238;9.562;2022-09-12T12:43:28;8.33;;;3.67;;
3415;SDS011;1721;51.238;9.562;2022-09-12T12:46:03;10.10;;;3.43;;
3415;SDS011;1721;51.238;9.562;2022-09-12T12:48:31;8.30;;;3.87;;
3415;SDS011;1721;51.238;9.562;2022-09-12T12:53:47;8.10;;;3.80;;
3415;SDS011;1721;51.238;9.562;2022-09-12T12:59:16;12.77;;;3.30;;
3415;SDS011;1721;51.238;9.562;2022-09-12T13:01:46;11.47;;;3.23;;
3415;SDS011;1721;51.238;9.562;2022-09-12T13:04:20;11.93;;;3.47;;
3415;SDS011;1721;51.238;9.562;2022-09-12T13:06:56;7.50;;;3.40;;
3415;SDS011;1721;51.238;9.562;2022-09-12T13:09:32;9.47;;;3.93;;
3415;SDS011;1721;51.238;9.562;2022-09-12T13:12:18;7.20;;;3.30;;
3415;SDS011;1721;51.238;9.562;2022-09-12T13:17:21;6.90;;;2.70;;
3415;SDS011;1721;51.238;9.562;2022-09-12T13:19:54;8.83;;;3.70;;
3415;SDS011;1721;51.238;9.562;2022-09-12T13:22:40;11.80;;;3.07;;
3415;SDS011;1721;51.238;9.562;2022-09-12T13:25:17;9.67;;;3.23;;
3415;SDS011;1721;51.238;9.562;2022-09-12T13:27:55;9.27;;;3.20;;
3415;SDS011;1721;51.238;9.562;2022-09-12T13:30:35;9.73;;;3.10;;
3415;SDS011;1721;51.238;9.562;2022-09-12T13:33:13;7.37;;;2.43;;
3415;SDS011;1721;51.238;9.562;2022-09-12T13:38:50;8.83;;;3.70;;
3415;SDS011;1721;51.238;9.562;2022-09-12T13:43:49;4.80;;;2.20;;
3415;SDS011;1721;51.238;9.562;2022-09-12T13:46:17;9.07;;;2.90;;
3415;SDS011;1721;51.238;9.562;2022-09-12T13:48:50;11.73;;;3.17;;
3415;SDS011;1721;51.238;9.562;2022-09-12T13:51:26;5.90;;;2.57;;
3415;SDS011;1721;51.238;9.562;2022-09-12T13:53:55;8.10;;;3.23;;
3415;SDS011;1721;51.238;9.562;2022-09-12T13:56:23;6.70;;;2.53;;
3415;SDS011;1721;51.238;9.562;2022-09-12T13:58:53;12.07;;;3.10;;
3415;SDS011;1721;51.238;9.562;2022-09-12T14:01:21;8.80;;;2.60;;
3415;SDS011;1721;51.238;9.562;2022-09-12T14:03:52;11.30;;;3.13;;
3415;SDS011;1721;51.238;9.562;2022-09-12T14:06:45;8.70;;;3.20;;
3415;SDS011;1721;51.238;9.562;2022-09-12T14:09:14;6.20;;;2.23;;
3415;SDS011;1721;51.238;9.562;2022-09-12T14:11:47;7.20;;;3.07;;
3415;SDS011;1721;51.238;9.562;2022-09-12T14:14:37;8.37;;;3.10;;
3415;SDS011;1721;51.238;9.562;2022-09-12T14:17:14;8.40;;;2.90;;
3415;SDS011;1721;51.238;9.562;2022-09-12T14:19:41;7.10;;;2.73;;
3415;SDS011;1721;51.238;9.562;2022-09-12T14:22:08;5.93;;;2.50;;
3415;SDS011;1721;51.238;9.562;2022-09-12T14:24:40;6.50;;;2.43;;
3415;SDS011;1721;51.238;9.562;2022-09-12T14:27:05;6.23;;;2.73;;
3415;SDS011;1721;51.238;9.562;2022-09-12T14:29:31;6.50;;;2.50;;
3415;SDS011;1721;51.238;9.562;2022-09-12T14:31:59;10.30;;;2.47;;
3415;SDS011;1721;51.238;9.562;2022-09-12T14:34:26;6.27;;;2.23;;
3415;SDS011;1721;51.238;9.562;2022-09-12T14:36:53;8.60;;;2.30;;
3415;SDS011;1721;51.238;9.562;2022-09-12T14:39:25;6.17;;;2.80;;
3415;SDS011;1721;51.238;9.562;2022-09-12T14:44:50;9.23;;;2.90;;
3415;SDS011;1721;51.238;9.562;2022-09-12T14:47:25;7.57;;;3.00;;
3415;SDS011;1721;51.238;9.562;2022-09-12T14:49:53;7.70;;;2.80;;
3415;SDS011;1721;51.238;9.562;2022-09-12T14:52:29;5.30;;;2.37;;
3415;SDS011;1721;51.238;9.562;2022-09-12T14:55:01;6.87;;;2.90;;
3415;SDS011;1721;51.238;9.562;2022-09-12T14:57:43;7.13;;;2.67;;
3415;SDS011;1721;51.238;9.562;2022-09-12T15:02:41;4.90;;;2.13;;
3415;SDS011;1721;51.238;9.562;2022-09-12T15:10:20;6.23;;;2.50;;
3415;SDS011;1721;51.238;9.562;2022-09-12T15:12:50;6.23;;;2.30;;
3415;SDS011;1721;51.238;9.562;2022-09-12T15:15:34;7.20;;;2.10;;
3415;SDS011;1721;51.238;9.562;2022-09-12T15:18:00;4.57;;;1.93;;
3415;SDS011;1721;51.238;9.562;2022-09-12T15:20:26;7.67;;;2.70;;
3415;SDS011;1721;51.238;9.562;2022-09-12T15:22:52;7.20;;;2.40;;
3415;SDS011;1721;51.238;9.562;2022-09-12T15:25:18;5.27;;;2.00;;
3415;SDS011;1721;51.238;9.562;2022-09-12T15:27:44;6.83;;;2.47;;
3415;SDS011;1721;51.238;9.562;2022-09-12T15:30:10;6.30;;;2.33;;
3415;SDS011;1721;51.238;9.562;2022-09-12T15:32:37;7.60;;;3.17;;
3415;SDS011;1721;51.238;9.562;2022-09-12T15:35:13;7.63;;;3.00;;
3415;SDS011;1721;51.238;9.562;2022-09-12T15:37:41;6.20;;;2.90;;
3415;SDS011;1721;51.238;9.562;2022-09-12T15:40:08;5.70;;;2.17;;
3415;SDS011;1721;51.238;9.562;2022-09-12T15:42:35;6.37;;;3.07;;
3415;SDS011;1721;51.238;9.562;2022-09-12T15:45:00;5.17;;;2.67;;
3415;SDS011;1721;51.238;9.562;2022-09-12T15:47:28;8.03;;;3.30;;
3415;SDS011;1721;51.238;9.562;2022-09-12T15:49:54;5.60;;;2.47;;
3415;SDS011;1721;51.238;9.562;2022-09-12T15:52:20;5.90;;;2.60;;
3415;SDS011;1721;51.238;9.562;2022-09-12T15:54:45;6.10;;;2.60;;
3415;SDS011;1721;51.238;9.562;2022-09-12T15:57:11;10.13;;;2.33;;
3415;SDS011;1721;51.238;9.562;2022-09-12T15:59:36;10.70;;;2.97;;
3415;SDS011;1721;51.238;9.562;2022-09-12T16:02:02;6.23;;;2.53;;
3415;SDS011;1721;51.238;9.562;2022-09-12T16:04:28;5.20;;;2.37;;
3415;SDS011;1721;51.238;9.562;2022-09-12T16:06:55;6.80;;;2.47;;
3415;SDS011;1721;51.238;9.562;2022-09-12T16:09:21;6.40;;;3.07;;
3415;SDS011;1721;51.238;9.562;2022-09-12T16:11:47;5.57;;;2.50;;
3415;SDS011;1721;51.238;9.562;2022-09-12T16:14:13;6.77;;;3.13;;
3415;SDS011;1721;51.238;9.562;2022-09-12T16:16:40;7.00;;;3.13;;
3415;SDS011;1721;51.238;9.562;2022-09-12T16:19:06;5.73;;;2.57;;
3415;SDS011;1721;51.238;9.562;2022-09-12T16:21:34;5.70;;;2.40;;
3415;SDS011;1721;51.238;9.562;2022-09-12T16:24:00;6.80;;;2.53;;
3415;SDS011;1721;51.238;9.562;2022-09-12T16:26:26;5.90;;;2.67;;
3415;SDS011;1721;51.238;9.562;2022-09-12T16:28:55;6.63;;;2.70;;
3415;SDS011;1721;51.238;9.562;2022-09-12T16:31:22;6.63;;;2.80;;
3415;SDS011;1721;51.238;9.562;2022-09-12T16:33:48;6.33;;;2.70;;
3415;SDS011;1721;51.238;9.562;2022-09-12T16:36:15;7.83;;;2.63;;
3415;SDS011;1721;51.238;9.562;2022-09-12T16:38:43;6.23;;;2.73;;
3415;SDS011;1721;51.238;9.562;2022-09-12T16:41:13;7.53;;;2.77;;
3415;SDS011;1721;51.238;9.562;2022-09-12T16:43:40;7.43;;;2.67;;
3415;SDS011;1721;51.238;9.562;2022-09-12T16:46:08;11.90;;;2.67;;
3415;SDS011;1721;51.238;9.562;2022-09-12T16:48:45;5.40;;;2.50;;
3415;SDS011;1721;51.238;9.562;2022-09-12T16:51:13;5.13;;;2.20;;
3415;SDS011;1721;51.238;9.562;2022-09-12T16:53:40;13.90;;;2.20;;
3415;SDS011;1721;51.238;9.562;2022-09-12T16:56:06;12.33;;;3.03;;
3415;SDS011;1721;51.238;9.562;2022-09-12T16:58:36;7.03;;;2.60;;
3415;SDS011;1721;51.238;9.562;2022-09-12T17:01:07;8.90;;;3.07;;
3415;SDS011;1721;51.238;9.562;2022-09-12T17:03:34;7.70;;;3.17;;
3415;SDS011;1721;51.238;9.562;2022-09-12T17:06:00;7.77;;;3.30;;
3415;SDS011;1721;51.238;9.562;2022-09-12T17:08:37;8.63;;;2.97;;
3415;SDS011;1721;51.238;9.562;2022-09-12T17:11:09;8.57;;;3.00;;
3415;SDS011;1721;51.238;9.562;2022-09-12T17:13:36;6.47;;;2.97;;
3415;SDS011;1721;51.238;9.562;2022-09-12T17:16:06;8.10;;;2.70;;
3415;SDS011;1721;51.238;9.562;2022-09-12T17:18:35;11.00;;;2.80;;
3415;SDS011;1721;51.238;9.562;2022-09-12T17:21:00;5.43;;;2.40;;
3415;SDS011;1721;51.238;9.562;2022-09-12T17:23:26;11.10;;;2.87;;
3415;SDS011;1721;51.238;9.562;2022-09-12T17:25:52;7.37;;;2.93;;
3415;SDS011;1721;51.238;9.562;2022-09-12T17:28:18;9.40;;;3.30;;
3415;SDS011;1721;51.238;9.562;2022-09-12T17:30:44;10.23;;;2.80;;
3415;SDS011;1721;51.238;9.562;2022-09-12T17:33:09;14.03;;;3.40;;
3415;SDS011;1721;51.238;9.562;2022-09-12T17:35:35;12.13;;;3.37;;